sensor_id;sensor_type;location;lat;lon;timestamp;temperature;humidity
66128;DHT22;52925;52.436;-1.952;2023-09-19T00:01:10;15.20;91.50
66128;DHT22;52925;52.436;-1.952;2023-09-19T00:02:31;15.20;91.40
66128;DHT22;52925;52.436;-1.952;2023-09-19T00:03:52;15.20;91.30
66128;DHT22;52925;52.436;-1.952;2023-09-19T00:05:13;15.20;91.50
66128;DHT22;52925;52.436;-1.952;2023-09-19T00:06:33;15.20;91.60
66128;DHT22;52925;52.436;-1.952;2023-09-19T00:07:56;15.20;91.60
66128;DHT22;52925;52.436;-1.952;2023-09-19T00:09:17;15.30;91.40
66128;DHT22;52925;52.436;-1.952;2023-09-19T00:10:38;15.30;91.40
66128;DHT22;52925;52.436;-1.952;2023-09-19T00:11:59;15.30;91.60
66128;DHT22;52925;52.436;-1.952;2023-09-19T00:13:21;15.40;91.60
66128;DHT22;52925;52.436;-1.952;2023-09-19T00:14:41;15.30;91.40
66128;DHT22;52925;52.436;-1.952;2023-09-19T00:16:08;15.40;91.60
66128;DHT22;52925;52.436;-1.952;2023-09-19T17:45:41;17.30;99.40
66128;DHT22;52925;52.436;-1.952;2023-09-19T17:47:03;17.30;99.50
66128;DHT22;52925;52.436;-1.952;2023-09-19T17:48:23;17.40;99.70
66128;DHT22;52925;52.436;-1.952;2023-09-19T17:49:44;17.40;99.60
66128;DHT22;52925;52.436;-1.952;2023-09-19T17:51:09;17.40;99.50
66128;DHT22;52925;52.436;-1.952;2023-09-19T17:52:30;17.40;99.50
66128;DHT22;52925;52.436;-1.952;2023-09-19T17:53:53;17.40;99.50
66128;DHT22;52925;52.436;-1.952;2023-09-19T17:55:13;17.40;99.50
66128;DHT22;52925;52.436;-1.952;2023-09-19T17:56:36;17.40;99.40
66128;DHT22;52925;52.436;-1.952;2023-09-19T17:57:59;17.40;99.40
66128;DHT22;52925;52.436;-1.952;2023-09-19T17:59:20;17.50;99.30
66128;DHT22;52925;52.436;-1.952;2023-09-19T18:00:43;17.50;99.30
66128;DHT22;52925;52.436;-1.952;2023-09-19T18:02:04;17.50;99.10
66128;DHT22;52925;52.436;-1.952;2023-09-19T18:03:25;17.50;99.10
66128;DHT22;52925;52.436;-1.952;2023-09-19T18:04:45;17.50;99.00
66128;DHT22;52925;52.436;-1.952;2023-09-19T18:06:05;17.60;99.00
66128;DHT22;52925;52.436;-1.952;2023-09-19T18:07:25;17.50;98.90
66128;DHT22;52925;52.436;-1.952;2023-09-19T18:08:47;17.60;98.90
66128;DHT22;52925;52.436;-1.952;2023-09-19T18:10:07;17.60;98.90
66128;DHT22;52925;52.436;-1.952;2023-09-19T18:11:29;17.60;98.80
66128;DHT22;52925;52.436;-1.952;2023-09-19T18:12:50;17.60;98.70
66128;DHT22;52925;52.436;-1.952;2023-09-19T18:14:11;17.70;98.70
66128;DHT22;52925;52.436;-1.952;2023-09-19T18:15:33;17.60;98.70
66128;DHT22;52925;52.436;-1.952;2023-09-19T18:16:58;17.60;98.70
66128;DHT22;52925;52.436;-1.952;2023-09-19T18:18:18;17.60;98.70
66128;DHT22;52925;52.436;-1.952;2023-09-19T18:19:39;17.60;98.70
66128;DHT22;52925;52.436;-1.952;2023-09-19T18:21:01;17.60;98.70
66128;DHT22;52925;52.436;-1.952;2023-09-19T18:22:22;17.60;98.70
66128;DHT22;52925;52.436;-1.952;2023-09-19T18:23:42;17.60;98.70
66128;DHT22;52925;52.436;-1.952;2023-09-19T18:25:06;17.70;98.70
66128;DHT22;52925;52.436;-1.952;2023-09-19T18:26:27;17.70;98.70
66128;DHT22;52925;52.436;-1.952;2023-09-19T18:27:48;17.70;98.70
66128;DHT22;52925;52.436;-1.952;2023-09-19T18:29:08;17.70;98.70
66128;DHT22;52925;52.436;-1.952;2023-09-19T18:30:30;17.60;98.70
66128;DHT22;52925;52.436;-1.952;2023-09-19T18:31:50;17.60;98.80
66128;DHT22;52925;52.436;-1.952;2023-09-19T18:33:13;17.70;98.70
66128;DHT22;52925;52.436;-1.952;2023-09-19T18:34:34;17.60;98.70
66128;DHT22;52925;52.436;-1.952;2023-09-19T18:36:00;17.60;98.70
66128;DHT22;52925;52.436;-1.952;2023-09-19T18:37:21;17.60;98.70
66128;DHT22;52925;52.436;-1.952;2023-09-19T18:38:42;17.60;98.70
66128;DHT22;52925;52.436;-1.952;2023-09-19T18:40:03;17.60;98.60
66128;DHT22;52925;52.436;-1.952;2023-09-19T18:41:24;17.70;98.60
66128;DHT22;52925;52.436;-1.952;2023-09-19T18:42:44;17.70;98.60
66128;DHT22;52925;52.436;-1.952;2023-09-19T18:44:05;17.60;98.60
66128;DHT22;52925;52.436;-1.952;2023-09-19T18:45:25;17.60;98.90
66128;DHT22;52925;52.436;-1.952;2023-09-19T18:46:46;17.60;98.50
66128;DHT22;52925;52.436;-1.952;2023-09-19T18:48:07;17.60;98.50
66128;DHT22;52925;52.436;-1.952;2023-09-19T18:49:29;17.60;98.40
66128;DHT22;52925;52.436;-1.952;2023-09-19T18:50:49;17.60;98.50
66128;DHT22;52925;52.436;-1.952;2023-09-19T18:52:10;17.60;98.40
66128;DHT22;52925;52.436;-1.952;2023-09-19T18:53:30;17.60;98.40
66128;DHT22;52925;52.436;-1.952;2023-09-19T18:54:52;17.60;98.30
66128;DHT22;52925;52.436;-1.952;2023-09-19T18:56:13;17.60;98.30
66128;DHT22;52925;52.436;-1.952;2023-09-19T18:57:34;17.60;98.30
66128;DHT22;52925;52.436;-1.952;2023-09-19T18:58:55;17.70;98.20
66128;DHT22;52925;52.436;-1.952;2023-09-19T19:00:15;17.60;98.20
66128;DHT22;52925;52.436;-1.952;2023-09-19T19:01:39;17.70;98.20
66128;DHT22;52925;52.436;-1.952;2023-09-19T19:02:59;17.70;98.20
66128;DHT22;52925;52.436;-1.952;2023-09-19T19:04:20;17.70;98.10
66128;DHT22;52925;52.436;-1.952;2023-09-19T19:05:44;17.70;98.10
66128;DHT22;52925;52.436;-1.952;2023-09-19T19:07:05;17.70;98.10
66128;DHT22;52925;52.436;-1.952;2023-09-19T19:08:26;17.60;98.10
66128;DHT22;52925;52.436;-1.952;2023-09-19T19:09:47;17.60;98.20
66128;DHT22;52925;52.436;-1.952;2023-09-19T19:11:09;17.60;98.20
66128;DHT22;52925;52.436;-1.952;2023-09-19T19:12:31;17.60;98.20
66128;DHT22;52925;52.436;-1.952;2023-09-19T19:13:52;17.60;98.20
66128;DHT22;52925;52.436;-1.952;2023-09-19T19:15:13;17.60;98.20
66128;DHT22;52925;52.436;-1.952;2023-09-19T19:16:33;17.60;98.10
66128;DHT22;52925;52.436;-1.952;2023-09-19T19:17:56;17.50;98.40
66128;DHT22;52925;52.436;-1.952;2023-09-19T19:19:18;17.50;98.40
66128;DHT22;52925;52.436;-1.952;2023-09-19T19:20:39;17.50;98.50
66128;DHT22;52925;52.436;-1.952;2023-09-19T19:22:02;17.50;98.50
66128;DHT22;52925;52.436;-1.952;2023-09-19T19:23:23;17.60;98.40
66128;DHT22;52925;52.436;-1.952;2023-09-19T19:24:44;17.60;98.40
66128;DHT22;52925;52.436;-1.952;2023-09-19T19:26:06;17.60;98.40
66128;DHT22;52925;52.436;-1.952;2023-09-19T19:27:26;17.60;98.40
66128;DHT22;52925;52.436;-1.952;2023-09-19T19:28:49;17.60;98.30
66128;DHT22;52925;52.436;-1.952;2023-09-19T19:30:09;17.60;98.20
66128;DHT22;52925;52.436;-1.952;2023-09-19T19:31:31;17.60;98.20
66128;DHT22;52925;52.436;-1.952;2023-09-19T19:32:53;17.60;98.20
66128;DHT22;52925;52.436;-1.952;2023-09-19T19:34:13;17.60;98.20
66128;DHT22;52925;52.436;-1.952;2023-09-19T19:35:34;17.60;98.20
66128;DHT22;52925;52.436;-1.952;2023-09-19T19:36:55;17.60;98.20
66128;DHT22;52925;52.436;-1.952;2023-09-19T19:38:18;17.50;98.20
66128;DHT22;52925;52.436;-1.952;2023-09-19T19:39:39;17.50;98.30
66128;DHT22;52925;52.436;-1.952;2023-09-19T19:41:01;17.60;98.20
66128;DHT22;52925;52.436;-1.952;2023-09-19T19:42:21;17.60;98.10
66128;DHT22;52925;52.436;-1.952;2023-09-19T19:43:43;17.60;98.20
66128;DHT22;52925;52.436;-1.952;2023-09-19T19:45:04;17.60;98.10
66128;DHT22;52925;52.436;-1.952;2023-09-19T19:46:26;17.70;98.10
66128;DHT22;52925;52.436;-1.952;2023-09-19T19:47:46;17.60;98.10
66128;DHT22;52925;52.436;-1.952;2023-09-19T19:49:07;17.60;98.10
66128;DHT22;52925;52.436;-1.952;2023-09-19T19:50:28;17.60;98.10
66128;DHT22;52925;52.436;-1.952;2023-09-19T19:51:49;17.60;98.10
66128;DHT22;52925;52.436;-1.952;2023-09-19T19:53:09;17.60;98.30
66128;DHT22;52925;52.436;-1.952;2023-09-19T19:54:33;17.60;98.40
66128;DHT22;52925;52.436;-1.952;2023-09-19T19:55:53;17.50;98.40
66128;DHT22;52925;52.436;-1.952;2023-09-19T19:57:14;17.60;98.40
66128;DHT22;52925;52.436;-1.952;2023-09-19T19:58:35;17.60;98.70
66128;DHT22;52925;52.436;-1.952;2023-09-19T20:00:02;17.60;98.40
66128;DHT22;52925;52.436;-1.952;2023-09-19T20:01:26;17.60;98.50
66128;DHT22;52925;52.436;-1.952;2023-09-19T20:02:47;17.60;98.40
66128;DHT22;52925;52.436;-1.952;2023-09-19T20:04:08;17.60;98.60
66128;DHT22;52925;52.436;-1.952;2023-09-19T20:05:30;17.50;98.60
66128;DHT22;52925;52.436;-1.952;2023-09-19T20:06:50;17.50;98.70
66128;DHT22;52925;52.436;-1.952;2023-09-19T20:08:11;17.50;98.70
66128;DHT22;52925;52.436;-1.952;2023-09-19T20:09:32;17.50;98.70
66128;DHT22;52925;52.436;-1.952;2023-09-19T20:10:53;17.50;98.80
66128;DHT22;52925;52.436;-1.952;2023-09-19T20:12:20;17.50;98.80
66128;DHT22;52925;52.436;-1.952;2023-09-19T20:13:41;17.60;98.90
66128;DHT22;52925;52.436;-1.952;2023-09-19T20:15:03;17.50;99.00
66128;DHT22;52925;52.436;-1.952;2023-09-19T20:16:24;17.50;98.90
66128;DHT22;52925;52.436;-1.952;2023-09-19T20:17:50;17.50;98.90
66128;DHT22;52925;52.436;-1.952;2023-09-19T20:19:12;17.50;98.90
66128;DHT22;52925;52.436;-1.952;2023-09-19T20:20:33;17.50;99.00
66128;DHT22;52925;52.436;-1.952;2023-09-19T20:21:54;17.50;98.80
66128;DHT22;52925;52.436;-1.952;2023-09-19T20:23:17;17.60;98.80
66128;DHT22;52925;52.436;-1.952;2023-09-19T20:24:39;17.50;98.90
66128;DHT22;52925;52.436;-1.952;2023-09-19T20:26:02;17.50;99.00
66128;DHT22;52925;52.436;-1.952;2023-09-19T20:27:24;17.50;99.00
66128;DHT22;52925;52.436;-1.952;2023-09-19T20:28:46;17.50;99.00
66128;DHT22;52925;52.436;-1.952;2023-09-19T20:30:07;17.50;98.90
66128;DHT22;52925;52.436;-1.952;2023-09-19T20:31:28;17.50;99.00
66128;DHT22;52925;52.436;-1.952;2023-09-19T20:32:47;17.50;99.00
66128;DHT22;52925;52.436;-1.952;2023-09-19T20:34:08;17.50;98.90
66128;DHT22;52925;52.436;-1.952;2023-09-19T20:35:29;17.50;98.90
66128;DHT22;52925;52.436;-1.952;2023-09-19T20:36:51;17.40;99.00
66128;DHT22;52925;52.436;-1.952;2023-09-19T20:38:10;17.40;99.10
66128;DHT22;52925;52.436;-1.952;2023-09-19T20:39:31;17.40;99.10
66128;DHT22;52925;52.436;-1.952;2023-09-19T20:40:53;17.40;99.00
66128;DHT22;52925;52.436;-1.952;2023-09-19T20:42:14;17.40;99.00
66128;DHT22;52925;52.436;-1.952;2023-09-19T20:43:35;17.50;98.80
66128;DHT22;52925;52.436;-1.952;2023-09-19T20:45:01;17.50;98.70
66128;DHT22;52925;52.436;-1.952;2023-09-19T20:46:21;17.50;98.80
66128;DHT22;52925;52.436;-1.952;2023-09-19T20:47:44;17.50;98.70
66128;DHT22;52925;52.436;-1.952;2023-09-19T20:49:05;17.50;98.80
66128;DHT22;52925;52.436;-1.952;2023-09-19T20:50:26;17.40;98.70
66128;DHT22;52925;52.436;-1.952;2023-09-19T20:51:46;17.50;98.80
66128;DHT22;52925;52.436;-1.952;2023-09-19T20:53:07;17.50;98.90
66128;DHT22;52925;52.436;-1.952;2023-09-19T20:54:27;17.50;98.80
66128;DHT22;52925;52.436;-1.952;2023-09-19T20:55:48;17.50;98.90
66128;DHT22;52925;52.436;-1.952;2023-09-19T20:57:11;17.50;98.90
66128;DHT22;52925;52.436;-1.952;2023-09-19T20:58:34;17.50;98.80
66128;DHT22;52925;52.436;-1.952;2023-09-19T20:59:54;17.50;98.70
66128;DHT22;52925;52.436;-1.952;2023-09-19T21:01:15;17.50;98.60
66128;DHT22;52925;52.436;-1.952;2023-09-19T21:02:37;17.50;98.70
66128;DHT22;52925;52.436;-1.952;2023-09-19T21:03:58;17.50;98.60
66128;DHT22;52925;52.436;-1.952;2023-09-19T21:05:18;17.50;98.70
66128;DHT22;52925;52.436;-1.952;2023-09-19T21:06:39;17.50;98.70
66128;DHT22;52925;52.436;-1.952;2023-09-19T21:07:59;17.50;98.60
66128;DHT22;52925;52.436;-1.952;2023-09-19T21:09:20;17.50;98.70
66128;DHT22;52925;52.436;-1.952;2023-09-19T21:10:40;17.50;98.70
66128;DHT22;52925;52.436;-1.952;2023-09-19T21:12:00;17.50;98.80
66128;DHT22;52925;52.436;-1.952;2023-09-19T21:13:22;17.50;98.80
66128;DHT22;52925;52.436;-1.952;2023-09-19T21:14:42;17.50;98.80
66128;DHT22;52925;52.436;-1.952;2023-09-19T21:16:02;17.50;98.80
66128;DHT22;52925;52.436;-1.952;2023-09-19T21:17:23;17.50;98.80
66128;DHT22;52925;52.436;-1.952;2023-09-19T21:18:45;17.50;98.80
66128;DHT22;52925;52.436;-1.952;2023-09-19T21:20:06;17.40;98.90
66128;DHT22;52925;52.436;-1.952;2023-09-19T21:21:27;17.40;99.10
66128;DHT22;52925;52.436;-1.952;2023-09-19T21:22:47;17.30;99.00
66128;DHT22;52925;52.436;-1.952;2023-09-19T21:24:09;17.40;98.90
66128;DHT22;52925;52.436;-1.952;2023-09-19T21:25:31;17.50;98.90
66128;DHT22;52925;52.436;-1.952;2023-09-19T21:26:52;17.50;98.80
66128;DHT22;52925;52.436;-1.952;2023-09-19T21:28:12;17.50;98.90
66128;DHT22;52925;52.436;-1.952;2023-09-19T21:29:35;17.50;98.90
66128;DHT22;52925;52.436;-1.952;2023-09-19T21:30:57;17.40;98.90
66128;DHT22;52925;52.436;-1.952;2023-09-19T21:32:18;17.40;99.00
66128;DHT22;52925;52.436;-1.952;2023-09-19T21:33:41;17.40;98.90
66128;DHT22;52925;52.436;-1.952;2023-09-19T21:35:01;17.40;98.90
66128;DHT22;52925;52.436;-1.952;2023-09-19T21:36:24;17.40;98.90
66128;DHT22;52925;52.436;-1.952;2023-09-19T21:37:48;17.40;99.00
66128;DHT22;52925;52.436;-1.952;2023-09-19T21:39:09;17.40;99.00
66128;DHT22;52925;52.436;-1.952;2023-09-19T21:40:30;17.50;99.00
66128;DHT22;52925;52.436;-1.952;2023-09-19T21:41:51;17.40;99.00
66128;DHT22;52925;52.436;-1.952;2023-09-19T21:43:10;17.50;98.90
66128;DHT22;52925;52.436;-1.952;2023-09-19T21:44:32;17.40;99.10
66128;DHT22;52925;52.436;-1.952;2023-09-19T21:45:53;17.40;99.10
66128;DHT22;52925;52.436;-1.952;2023-09-19T21:47:14;17.40;99.10
66128;DHT22;52925;52.436;-1.952;2023-09-19T21:48:34;17.50;99.10
66128;DHT22;52925;52.436;-1.952;2023-09-19T21:49:55;17.40;99.10
66128;DHT22;52925;52.436;-1.952;2023-09-19T21:51:15;17.40;99.20
66128;DHT22;52925;52.436;-1.952;2023-09-19T21:52:36;17.40;99.10
66128;DHT22;52925;52.436;-1.952;2023-09-19T21:53:56;17.40;99.10
66128;DHT22;52925;52.436;-1.952;2023-09-19T21:55:17;17.40;99.40
66128;DHT22;52925;52.436;-1.952;2023-09-19T21:56:37;17.40;99.40
66128;DHT22;52925;52.436;-1.952;2023-09-19T21:57:58;17.40;99.30
66128;DHT22;52925;52.436;-1.952;2023-09-19T21:59:18;17.40;99.40
66128;DHT22;52925;52.436;-1.952;2023-09-19T22:00:39;17.40;99.30
66128;DHT22;52925;52.436;-1.952;2023-09-19T22:02:04;17.50;99.50
66128;DHT22;52925;52.436;-1.952;2023-09-19T22:03:27;17.50;99.40
66128;DHT22;52925;52.436;-1.952;2023-09-19T22:04:48;17.50;99.40
66128;DHT22;52925;52.436;-1.952;2023-09-19T22:06:10;17.50;99.70
66128;DHT22;52925;52.436;-1.952;2023-09-19T22:07:33;17.40;99.50
66128;DHT22;52925;52.436;-1.952;2023-09-19T22:08:53;17.40;99.60
66128;DHT22;52925;52.436;-1.952;2023-09-19T22:10:15;17.40;99.70
66128;DHT22;52925;52.436;-1.952;2023-09-19T22:11:35;17.40;99.70
66128;DHT22;52925;52.436;-1.952;2023-09-19T22:12:56;17.40;99.70
66128;DHT22;52925;52.436;-1.952;2023-09-19T22:14:19;17.40;99.70
66128;DHT22;52925;52.436;-1.952;2023-09-19T22:15:42;17.40;99.70
66128;DHT22;52925;52.436;-1.952;2023-09-19T22:17:04;17.50;99.70
66128;DHT22;52925;52.436;-1.952;2023-09-19T22:18:27;17.50;99.70
66128;DHT22;52925;52.436;-1.952;2023-09-19T22:19:47;17.50;99.70
66128;DHT22;52925;52.436;-1.952;2023-09-19T22:21:07;17.50;99.50
66128;DHT22;52925;52.436;-1.952;2023-09-19T22:22:30;17.50;99.80
66128;DHT22;52925;52.436;-1.952;2023-09-19T22:23:51;17.50;99.60
66128;DHT22;52925;52.436;-1.952;2023-09-19T22:25:12;17.50;99.60
66128;DHT22;52925;52.436;-1.952;2023-09-19T22:26:33;17.50;99.70
66128;DHT22;52925;52.436;-1.952;2023-09-19T22:27:57;17.50;99.50
66128;DHT22;52925;52.436;-1.952;2023-09-19T22:29:21;17.50;99.50
66128;DHT22;52925;52.436;-1.952;2023-09-19T22:30:43;17.50;99.50
66128;DHT22;52925;52.436;-1.952;2023-09-19T22:32:07;17.40;99.60
66128;DHT22;52925;52.436;-1.952;2023-09-19T22:33:29;17.50;99.60
66128;DHT22;52925;52.436;-1.952;2023-09-19T22:34:49;17.50;99.70
66128;DHT22;52925;52.436;-1.952;2023-09-19T22:36:11;17.50;99.50
66128;DHT22;52925;52.436;-1.952;2023-09-19T22:37:31;17.50;99.50
66128;DHT22;52925;52.436;-1.952;2023-09-19T22:38:52;17.50;99.50
66128;DHT22;52925;52.436;-1.952;2023-09-19T22:40:13;17.50;99.30
66128;DHT22;52925;52.436;-1.952;2023-09-19T22:41:47;17.50;99.30
66128;DHT22;52925;52.436;-1.952;2023-09-19T22:43:09;17.60;99.20
66128;DHT22;52925;52.436;-1.952;2023-09-19T22:44:32;17.50;99.40
66128;DHT22;52925;52.436;-1.952;2023-09-19T22:45:55;17.50;99.40
66128;DHT22;52925;52.436;-1.952;2023-09-19T22:47:17;17.50;99.50
66128;DHT22;52925;52.436;-1.952;2023-09-19T22:48:38;17.50;99.50
66128;DHT22;52925;52.436;-1.952;2023-09-19T22:49:58;17.50;99.40
66128;DHT22;52925;52.436;-1.952;2023-09-19T22:51:20;17.50;99.50
66128;DHT22;52925;52.436;-1.952;2023-09-19T22:52:41;17.50;99.40
66128;DHT22;52925;52.436;-1.952;2023-09-19T22:54:07;17.50;99.30
66128;DHT22;52925;52.436;-1.952;2023-09-19T22:55:35;17.50;99.50
66128;DHT22;52925;52.436;-1.952;2023-09-19T22:56:59;17.50;99.30
66128;DHT22;52925;52.436;-1.952;2023-09-19T22:58:21;17.50;99.50
66128;DHT22;52925;52.436;-1.952;2023-09-19T22:59:42;17.50;99.50
66128;DHT22;52925;52.436;-1.952;2023-09-19T23:01:07;17.50;99.50
66128;DHT22;52925;52.436;-1.952;2023-09-19T23:02:35;17.60;99.50
66128;DHT22;52925;52.436;-1.952;2023-09-19T23:04:01;17.50;99.50
66128;DHT22;52925;52.436;-1.952;2023-09-19T23:05:35;17.50;99.30
66128;DHT22;52925;52.436;-1.952;2023-09-19T23:06:57;17.50;99.30
66128;DHT22;52925;52.436;-1.952;2023-09-19T23:08:21;17.50;99.40
66128;DHT22;52925;52.436;-1.952;2023-09-19T23:09:44;17.60;99.30
66128;DHT22;52925;52.436;-1.952;2023-09-19T23:11:04;17.50;99.20
66128;DHT22;52925;52.436;-1.952;2023-09-19T23:12:28;17.50;99.50
66128;DHT22;52925;52.436;-1.952;2023-09-19T23:13:50;17.50;99.70
66128;DHT22;52925;52.436;-1.952;2023-09-19T23:15:11;17.50;99.50
66128;DHT22;52925;52.436;-1.952;2023-09-19T23:16:35;17.60;99.60
66128;DHT22;52925;52.436;-1.952;2023-09-19T23:17:57;17.50;99.50
66128;DHT22;52925;52.436;-1.952;2023-09-19T23:19:18;17.50;99.50
66128;DHT22;52925;52.436;-1.952;2023-09-19T23:20:47;17.60;99.40
66128;DHT22;52925;52.436;-1.952;2023-09-19T23:22:10;17.50;99.50
66128;DHT22;52925;52.436;-1.952;2023-09-19T23:23:34;17.50;99.50
66128;DHT22;52925;52.436;-1.952;2023-09-19T23:24:55;17.60;99.50
66128;DHT22;52925;52.436;-1.952;2023-09-19T23:26:26;17.60;99.50
66128;DHT22;52925;52.436;-1.952;2023-09-19T23:27:47;17.50;99.50
66128;DHT22;52925;52.436;-1.952;2023-09-19T23:29:18;17.50;99.50
66128;DHT22;52925;52.436;-1.952;2023-09-19T23:30:39;17.50;99.50
66128;DHT22;52925;52.436;-1.952;2023-09-19T23:31:59;17.50;99.50
66128;DHT22;52925;52.436;-1.952;2023-09-19T23:33:22;17.50;99.50
66128;DHT22;52925;52.436;-1.952;2023-09-19T23:34:42;17.60;99.70
66128;DHT22;52925;52.436;-1.952;2023-09-19T23:36:06;17.50;99.50
66128;DHT22;52925;52.436;-1.952;2023-09-19T23:37:28;17.50;99.60
66128;DHT22;52925;52.436;-1.952;2023-09-19T23:38:49;17.60;99.50
66128;DHT22;52925;52.436;-1.952;2023-09-19T23:40:11;17.50;99.50
66128;DHT22;52925;52.436;-1.952;2023-09-19T23:41:31;17.50;99.60
66128;DHT22;52925;52.436;-1.952;2023-09-19T23:42:51;17.50;99.60
66128;DHT22;52925;52.436;-1.952;2023-09-19T23:44:11;17.60;99.70
66128;DHT22;52925;52.436;-1.952;2023-09-19T23:45:32;17.50;99.60
66128;DHT22;52925;52.436;-1.952;2023-09-19T23:46:53;17.60;99.70
66128;DHT22;52925;52.436;-1.952;2023-09-19T23:48:14;17.50;99.60
66128;DHT22;52925;52.436;-1.952;2023-09-19T23:49:37;17.50;99.70
66128;DHT22;52925;52.436;-1.952;2023-09-19T23:50:59;17.50;99.70
66128;DHT22;52925;52.436;-1.952;2023-09-19T23:52:22;17.50;99.70
66128;DHT22;52925;52.436;-1.952;2023-09-19T23:53:42;17.50;99.70
66128;DHT22;52925;52.436;-1.952;2023-09-19T23:55:03;17.50;99.60
66128;DHT22;52925;52.436;-1.952;2023-09-19T23:56:24;17.60;99.60
66128;DHT22;52925;52.436;-1.952;2023-09-19T23:57:44;17.60;99.50
66128;DHT22;52925;52.436;-1.952;2023-09-19T23:59:04;17.50;99.70
